Time;durP1;ratioP1;P1;durP2;ratioP2;P2;SDS_P1;SDS_P2;PMS_P1;PMS_P2;Temp;Humidity;BMP_temperature;BMP_pressure;BME280_temperature;BME280_humidity;BME280_pressure;Samples;Min_cycle;Max_cycle;Signal;HPM_P1;HPM_P2
2022/10/12 00:01:05;;;;;;;40.28;21.40;;;;;;;6.39;73.10;101661.80;1797409;78;25751;-85
2022/10/12 00:03:35;;;;;;;43.93;19.97;;;;;;;6.40;73.18;101662.12;1768878;80;25853;-84
2022/10/12 00:06:06;;;;;;;36.23;19.62;;;;;;;6.42;73.23;101665.98;1748734;81;25544;-83
2022/10/12 00:08:33;;;;;;;;;;;;;;;6.42;73.26;101667.31;1740998;81;28319;-84
2022/10/12 00:11:00;;;;;;;38.55;20.57;;;;;;;6.41;73.26;101664.31;1789818;79;26002;-84
2022/10/12 00:13:26;;;;;;;38.83;21.48;;;;;;;6.36;73.18;101670.03;1807253;78;25731;-83
2022/10/12 00:15:53;;;;;;;35.68;20.20;;;;;;;6.33;73.05;101665.48;1793839;78;25913;-84
2022/10/12 00:18:19;;;;;;;31.65;18.77;;;;;;;6.31;73.22;101667.42;1782358;79;25906;-84
2022/10/12 00:20:46;;;;;;;35.52;19.80;;;;;;;6.32;73.36;101673.09;1790928;79;27439;-83
2022/10/12 00:23:13;;;;;;;38.75;20.15;;;;;;;6.33;73.59;101669.47;1796011;79;26547;-83
2022/10/12 00:25:41;;;;;;;38.25;19.60;;;;;;;6.34;73.86;101666.66;1778557;79;25824;-84
2022/10/12 00:28:07;;;;;;;40.55;19.70;;;;;;;6.34;74.13;101662.67;1784899;79;25889;-84
2022/10/12 00:30:35;;;;;;;36.50;20.50;;;;;;;6.36;74.34;101670.03;1796479;79;25776;-84
2022/10/12 00:33:01;;;;;;;32.28;19.62;;;;;;;6.34;73.86;101667.14;1761982;79;28728;-84
2022/10/12 00:35:28;;;;;;;35.00;19.75;;;;;;;6.29;73.48;101670.20;1780695;79;25292;-84
2022/10/12 00:37:55;;;;;;;35.98;19.45;;;;;;;6.24;73.28;101672.44;1781151;79;26289;-84
2022/10/12 00:40:22;;;;;;;32.90;18.25;;;;;;;6.19;73.22;101670.65;1789476;79;25833;-84
2022/10/12 00:42:48;;;;;;;35.03;19.02;;;;;;;6.13;73.08;101673.36;1791223;79;25493;-84
2022/10/12 00:45:16;;;;;;;33.28;19.40;;;;;;;6.10;73.26;101675.42;1793669;79;28149;-84
2022/10/12 00:47:53;;;;;;;36.93;20.08;;;;;;;6.07;73.36;101677.04;1778068;79;25771;-84
2022/10/12 00:50:30;;;;;;;31.68;19.15;;;;;;;6.02;73.24;101681.41;1791368;79;25927;-83
2022/10/12 00:53:11;;;;;;;34.95;18.90;;;;;;;5.98;73.10;101680.00;1767880;80;26256;-84
2022/10/12 00:55:41;;;;;;;;;;;;;;;5.94;73.03;101679.91;1791897;79;25780;-84
2022/10/12 00:58:08;;;;;;;38.48;19.70;;;;;;;5.85;72.86;101680.68;1795820;79;27685;-85
2022/10/12 01:00:37;;;;;;;33.70;19.32;;;;;;;5.79;73.04;101682.50;1777690;79;25870;-83
2022/10/12 01:03:07;;;;;;;37.75;21.27;;;;;;;5.78;72.96;101686.59;1776802;79;26139;-84
2022/10/12 01:05:34;;;;;;;42.57;21.97;;;;;;;5.74;73.04;101692.67;1768581;80;25963;-84
2022/10/12 01:08:01;;;;;;;35.60;21.87;;;;;;;5.72;73.09;101691.95;1782400;80;25585;-84
2022/10/12 01:10:29;;;;;;;38.02;21.57;;;;;;;5.68;72.98;101681.70;1781988;80;27464;-83
2022/10/12 01:12:55;;;;;;;38.75;21.65;;;;;;;5.62;72.72;101692.86;1780170;80;26497;-84
2022/10/12 01:15:25;;;;;;;45.70;25.17;;;;;;;5.58;72.72;101694.09;1782568;79;25846;-84
2022/10/12 01:18:15;;;;;;;47.30;24.40;;;;;;;5.53;72.78;101690.96;1776129;79;25849;-84
2022/10/12 01:21:02;;;;;;;43.23;23.30;;;;;;;5.48;72.91;101686.88;1780667;80;25779;-83
2022/10/12 01:24:11;;;;;;;35.88;21.12;;;;;;;5.45;73.10;101687.63;1804080;79;27558;-84
2022/10/12 01:27:22;;;;;;;43.30;22.35;;;;;;;5.46;73.38;101695.94;1793894;79;26464;-84
2022/10/12 01:30:11;;;;;;;36.90;21.97;;;;;;;5.45;73.63;101695.09;1783285;80;25746;-84
2022/10/12 01:33:02;;;;;;;40.00;22.82;;;;;;;5.42;73.34;101694.03;1795140;78;25943;-84
2022/10/12 01:35:49;;;;;;;40.60;21.75;;;;;;;5.38;73.44;101696.59;1804575;78;25890;-83
2022/10/12 01:38:30;;;;;;;36.10;22.10;;;;;;;5.33;73.38;101697.92;1811992;78;28257;-84
2022/10/12 01:41:06;;;;;;;;;;;;;;;5.32;73.45;101701.56;1797418;78;25852;-83
2022/10/12 01:43:39;;;;;;;30.65;17.52;;;;;;;5.31;73.55;101699.86;1780592;78;25841;-84
2022/10/12 01:46:20;;;;;;;29.07;17.70;;;;;;;5.28;73.86;101704.94;1802390;78;25769;-83
2022/10/12 01:48:51;;;;;;;32.63;18.90;;;;;;;5.29;74.16;101705.31;1735560;81;26460;-84
2022/10/12 01:51:57;;;;;;;35.60;18.60;;;;;;;5.30;74.32;101708.30;1747948;81;27615;-84
2022/10/12 01:54:29;;;;;;;31.42;18.05;;;;;;;5.31;74.15;101704.70;1704747;83;26381;-82
2022/10/12 01:57:10;;;;;;;39.23;20.82;;;;;;;5.29;74.12;101707.11;1731005;82;25963;-83
2022/10/12 01:59:46;;;;;;;;;;;;;;;5.26;73.92;101710.05;1751176;80;25876;-84
2022/10/12 02:02:47;;;;;;;34.90;18.60;;;;;;;5.25;73.92;101712.33;1749964;81;25856;-84
2022/10/12 02:05:17;;;;;;;;;;;;;;;5.20;74.02;101712.70;1729999;81;27458;-84
2022/10/12 02:07:54;;;;;;;35.55;19.45;;;;;;;5.20;74.36;101711.84;1749932;80;25733;-84
2022/10/12 02:10:45;;;;;;;31.05;18.02;;;;;;;5.17;74.75;101709.45;1742943;81;25792;-84
2022/10/12 02:13:14;;;;;;;34.97;19.17;;;;;;;5.19;75.22;101712.83;1746793;81;26627;-84
2022/10/12 02:15:43;;;;;;;34.75;18.48;;;;;;;5.22;75.56;101717.87;1766316;80;25879;-83
2022/10/12 02:18:15;;;;;;;34.67;18.45;;;;;;;5.22;75.52;101716.55;1779050;79;27453;-83
2022/10/12 02:20:41;;;;;;;30.70;18.30;;;;;;;5.22;75.26;101720.05;1783543;78;25528;-83
2022/10/12 02:23:09;;;;;;;35.30;19.00;;;;;;;5.20;74.84;101723.80;1770786;79;25836;-82
2022/10/12 02:25:36;;;;;;;33.20;19.73;;;;;;;5.17;74.72;101715.62;1756559;80;25830;-83
2022/10/12 02:28:12;;;;;;;34.98;19.77;;;;;;;5.14;74.51;101719.84;1764308;80;26446;-82
2022/10/12 02:30:59;;;;;;;33.75;19.82;;;;;;;5.10;74.33;101717.55;1731998;82;27546;-83
2022/10/12 02:33:34;;;;;;;37.55;19.35;;;;;;;5.07;74.21;101716.49;1753425;79;25272;-83
2022/10/12 02:36:06;;;;;;;31.02;18.60;;;;;;;5.04;74.29;101717.58;1770008;80;25915;-83
2022/10/12 02:38:50;;;;;;;35.08;18.67;;;;;;;5.02;74.65;101714.20;1773139;79;25984;-83
2022/10/12 02:41:24;;;;;;;32.20;17.73;;;;;;;5.04;74.95;101716.25;1771784;79;25872;-82
2022/10/12 02:43:58;;;;;;;37.10;19.05;;;;;;;5.07;74.96;101716.49;1788939;78;27435;-83
2022/10/12 02:46:26;;;;;;;30.52;18.75;;;;;;;5.07;74.81;101726.61;1793512;78;25840;-83
2022/10/12 02:48:55;;;;;;;32.63;19.82;;;;;;;5.09;74.78;101721.20;1704276;83;26602;-82
2022/10/12 02:51:23;;;;;;;36.10;19.02;;;;;;;5.05;74.32;101721.05;1716415;81;26773;-82
2022/10/12 02:53:49;;;;;;;35.68;20.25;;;;;;;5.02;74.47;101720.84;1771252;79;26151;-84
2022/10/12 02:56:16;;;;;;;36.35;20.82;;;;;;;4.99;74.27;101722.41;1773159;79;27439;-82
2022/10/12 02:58:44;;;;;;;39.03;20.30;;;;;;;4.94;73.98;101717.94;1771161;79;25775;-83
2022/10/12 03:01:11;;;;;;;40.10;22.17;;;;;;;4.89;73.86;101720.61;1771877;79;26151;-82
2022/10/12 03:03:37;;;;;;;39.48;21.50;;;;;;;4.86;73.97;101722.17;1771996;79;27010;-83
2022/10/12 03:06:04;;;;;;;33.85;19.70;;;;;;;4.82;74.14;101720.26;1770380;79;25956;-83
2022/10/12 03:08:31;;;;;;;35.98;18.85;;;;;;;4.82;74.46;101719.41;1769387;79;27513;-83
2022/10/12 03:11:06;;;;;;;37.90;18.80;;;;;;;4.83;74.66;101716.66;1774903;79;26372;-82
2022/10/12 03:13:32;;;;;;;38.80;20.68;;;;;;;4.82;74.68;101716.28;1771749;79;25276;-82
2022/10/12 03:16:05;;;;;;;37.90;19.98;;;;;;;4.80;74.55;101719.55;1790136;78;25785;-83
2022/10/12 03:18:33;;;;;;;35.13;17.75;;;;;;;4.80;74.66;101711.58;1817355;78;26440;-84
2022/10/12 03:21:00;;;;;;;32.33;18.77;;;;;;;4.78;74.42;101718.82;1725770;81;27451;-82
2022/10/12 03:23:27;;;;;;;33.53;19.23;;;;;;;4.76;74.34;101722.56;1746721;80;25867;-83
2022/10/12 03:25:53;;;;;;;35.80;19.52;;;;;;;4.73;74.42;101722.82;1733574;81;25374;-83
2022/10/12 03:28:19;;;;;;;29.23;18.80;;;;;;;4.72;74.57;101725.09;1768196;80;26546;-82
2022/10/12 03:30:45;;;;;;;29.48;18.98;;;;;;;4.73;74.57;101724.15;1766679;79;25793;-82
2022/10/12 03:33:12;;;;;;;42.33;23.20;;;;;;;4.73;74.66;101722.31;1816840;78;27593;-83
2022/10/12 03:35:44;;;;;;;41.15;21.17;;;;;;;4.72;74.99;101718.47;1766434;80;25855;-82
2022/10/12 03:38:12;;;;;;;33.15;18.73;;;;;;;4.72;75.52;101723.30;1745168;80;26062;-83
2022/10/12 03:40:38;;;;;;;37.40;19.07;;;;;;;4.72;75.94;101717.14;1758228;80;25923;-83
2022/10/12 03:43:05;;;;;;;31.52;18.95;;;;;;;4.72;76.29;101713.16;1743727;79;25928;-83
2022/10/12 03:45:31;;;;;;;38.92;20.97;;;;;;;4.72;76.53;101713.16;1747977;81;27442;-83
2022/10/12 03:47:58;;;;;;;26.97;18.12;;;;;;;4.72;76.70;101725.09;1805608;78;25786;-82
2022/10/12 03:50:24;;;;;;;31.50;19.25;;;;;;;4.71;76.68;101722.92;1768282;79;25886;-83
2022/10/12 03:52:51;;;;;;;32.98;18.62;;;;;;;4.70;76.34;101726.55;1765828;79;25795;-82
2022/10/12 03:55:17;;;;;;;38.28;19.73;;;;;;;4.65;75.88;101726.06;1749791;80;25794;-82
2022/10/12 03:57:44;;;;;;;37.10;20.97;;;;;;;4.64;75.66;101733.69;1743166;80;28430;-83
2022/10/12 04:00:13;;;;;;;34.30;18.90;;;;;;;4.58;75.37;101729.69;1748865;80;25980;-83
2022/10/12 04:02:39;;;;;;;35.83;20.20;;;;;;;4.53;75.17;101728.37;1747049;81;25833;-83
2022/10/12 04:05:06;;;;;;;32.90;19.37;;;;;;;4.49;75.12;101726.42;1766341;79;26001;-82
2022/10/12 04:07:33;;;;;;;37.15;19.95;;;;;;;4.44;75.01;101725.95;1747996;81;25789;-83
2022/10/12 04:10:00;;;;;;;33.25;17.57;;;;;;;4.41;75.01;101729.31;1737881;80;27445;-83
2022/10/12 04:12:26;;;;;;;32.17;18.92;;;;;;;4.39;75.09;101727.27;1766849;79;25834;-83
2022/10/12 04:14:52;;;;;;;28.42;17.02;;;;;;;4.38;75.34;101725.59;1766375;80;26162;-82
2022/10/12 04:17:19;;;;;;;35.83;19.60;;;;;;;4.40;75.64;101726.31;1749061;80;25819;-83
2022/10/12 04:19:45;;;;;;;34.43;18.77;;;;;;;4.42;75.85;101724.38;1747151;81;25338;-82
2022/10/12 04:22:11;;;;;;;38.05;20.52;;;;;;;4.42;75.55;101727.03;1751382;80;27449;-83
2022/10/12 04:24:38;;;;;;;41.63;21.45;;;;;;;4.36;75.14;101727.02;1745465;81;25846;-82
2022/10/12 04:27:04;;;;;;;33.60;19.05;;;;;;;4.31;74.94;101730.52;1736100;81;25925;-82
2022/10/12 04:29:31;;;;;;;38.50;19.23;;;;;;;4.26;74.75;101735.80;1762394;80;26377;-83
2022/10/12 04:31:57;;;;;;;33.00;18.85;;;;;;;4.22;74.73;101737.86;1767767;80;25784;-82
2022/10/12 04:34:23;;;;;;;32.75;18.73;;;;;;;4.18;74.82;101739.06;1763118;80;27621;-83
2022/10/12 04:36:49;;;;;;;31.50;19.35;;;;;;;4.16;74.80;101746.29;1759328;79;25788;-82
2022/10/12 04:39:16;;;;;;;31.25;18.07;;;;;;;4.12;74.71;101743.52;1764091;79;26095;-82
2022/10/12 04:41:42;;;;;;;32.75;18.37;;;;;;;4.07;74.77;101743.02;1746094;81;25881;-82
2022/10/12 04:44:09;;;;;;;33.60;18.23;;;;;;;4.04;74.89;101741.94;1764898;79;25981;-83
2022/10/12 04:46:35;;;;;;;30.55;16.93;;;;;;;4.05;75.15;101744.09;1742431;81;27467;-83
2022/10/12 04:49:01;;;;;;;30.82;18.57;;;;;;;4.04;75.21;101740.61;1724025;81;25291;-83
2022/10/12 04:51:28;;;;;;;30.92;17.98;;;;;;;4.04;75.15;101753.88;1747086;81;26479;-83
2022/10/12 04:53:54;;;;;;;31.80;17.37;;;;;;;4.04;75.19;101749.04;1750159;81;25756;-83
2022/10/12 04:56:20;;;;;;;26.97;17.48;;;;;;;4.03;75.38;101750.84;1746902;80;25857;-83
2022/10/12 04:58:46;;;;;;;30.70;17.37;;;;;;;4.03;75.67;101746.01;1750597;80;28276;-82
2022/10/12 05:01:13;;;;;;;30.97;17.52;;;;;;;4.03;75.90;101748.19;1745813;81;25284;-83
2022/10/12 05:03:39;;;;;;;30.05;17.37;;;;;;;4.05;76.02;101745.41;1752317;81;25844;-84
2022/10/12 05:06:06;;;;;;;29.10;17.23;;;;;;;4.07;76.14;101746.14;1745811;80;26175;-82
2022/10/12 05:08:32;;;;;;;32.40;17.67;;;;;;;4.08;76.21;101754.00;1748494;80;25832;-82
2022/10/12 05:10:59;;;;;;;33.23;18.00;;;;;;;4.07;76.17;101749.64;1739384;81;28338;-83
2022/10/12 05:13:25;;;;;;;30.48;16.35;;;;;;;4.07;76.07;101754.09;1744811;81;26131;-83
2022/10/12 05:15:52;;;;;;;26.82;17.07;;;;;;;4.05;76.21;101754.69;1795699;78;25771;-83
2022/10/12 05:18:18;;;;;;;26.75;16.48;;;;;;;4.08;76.46;101763.27;1784505;79;26524;-82
2022/10/12 05:20:45;;;;;;;34.10;17.60;;;;;;;4.09;76.57;101769.40;1764871;80;25791;-83
2022/10/12 05:23:11;;;;;;;29.72;16.25;;;;;;;4.08;76.35;101767.25;1786768;79;27429;-83
2022/10/12 05:25:38;;;;;;;29.42;17.00;;;;;;;4.07;76.29;101771.32;1776456;79;26035;-83
2022/10/12 05:28:05;;;;;;;33.35;17.00;;;;;;;4.06;76.37;101771.83;1784182;79;26026;-82
2022/10/12 05:30:32;;;;;;;28.10;16.93;;;;;;;4.08;76.54;101777.00;1778649;79;26515;-83
2022/10/12 05:32:59;;;;;;;27.60;16.67;;;;;;;4.09;76.86;101776.03;1784272;79;25928;-83
2022/10/12 05:35:25;;;;;;;35.88;17.20;;;;;;;4.11;76.90;101778.93;1780607;79;27633;-83
2022/10/12 05:37:52;;;;;;;29.98;17.05;;;;;;;4.13;76.83;101776.19;1782207;80;25706;-82
2022/10/12 05:40:18;;;;;;;27.30;17.05;;;;;;;4.15;76.89;101778.23;1774966;80;25823;-82
2022/10/12 05:42:44;;;;;;;28.27;17.40;;;;;;;4.16;76.73;101781.23;1785358;79;26330;-83
2022/10/12 05:45:11;;;;;;;31.00;18.32;;;;;;;4.18;76.83;101787.27;1783611;79;25883;-83
2022/10/12 05:47:38;;;;;;;33.25;18.77;;;;;;;4.19;76.79;101788.97;1728222;81;27590;-83
2022/10/12 05:50:06;;;;;;;35.48;20.43;;;;;;;4.21;76.76;101783.06;1794387;78;25869;-82
2022/10/12 05:52:32;;;;;;;30.43;19.02;;;;;;;4.22;76.70;101788.25;1792011;78;26407;-83
2022/10/12 05:54:58;;;;;;;36.17;20.17;;;;;;;4.22;76.80;101790.05;1792551;78;25810;-83
2022/10/12 05:57:25;;;;;;;36.23;21.27;;;;;;;4.22;76.97;101789.58;1789649;79;25720;-83
2022/10/12 05:59:51;;;;;;;36.63;20.62;;;;;;;4.25;77.02;101789.83;1796664;79;27433;-83
2022/10/12 06:02:18;;;;;;;28.75;18.02;;;;;;;4.28;77.21;101788.24;1796207;78;25854;-82
2022/10/12 06:04:44;;;;;;;31.65;18.15;;;;;;;4.32;77.47;101786.57;1791883;79;25436;-82
2022/10/12 06:07:10;;;;;;;30.23;18.05;;;;;;;4.37;77.68;101783.09;1794115;78;25767;-83
2022/10/12 06:09:40;;;;;;;29.52;17.52;;;;;;;4.44;78.04;101786.12;1799027;78;25902;-83
2022/10/12 06:12:07;;;;;;;27.40;17.15;;;;;;;4.50;78.30;101789.62;1795581;78;28263;-83
2022/10/12 06:14:33;;;;;;;26.52;17.23;;;;;;;4.57;78.66;101778.91;1791217;78;25752;-84
2022/10/12 06:16:59;;;;;;;36.03;21.02;;;;;;;4.62;78.84;101787.33;1802559;78;25839;-84
2022/10/12 06:19:26;;;;;;;42.45;22.32;;;;;;;4.65;78.91;101787.95;1802627;78;26292;-83
2022/10/12 06:21:52;;;;;;;39.27;23.52;;;;;;;4.68;79.16;101785.55;1800130;78;26389;-83
2022/10/12 06:24:18;;;;;;;38.17;23.00;;;;;;;4.73;79.34;101790.50;1806013;77;27445;-83
2022/10/12 06:26:44;;;;;;;41.55;24.10;;;;;;;4.76;79.61;101786.26;1801142;78;25800;-83
2022/10/12 06:29:11;;;;;;;38.60;24.05;;;;;;;4.79;80.01;101792.16;1809792;77;25810;-83
2022/10/12 06:31:38;;;;;;;39.13;22.67;;;;;;;4.84;80.34;101793.98;1794919;77;25820;-82
2022/10/12 06:34:05;;;;;;;87.25;45.60;;;;;;;4.87;80.64;101791.09;1795156;78;26307;-83
2022/10/12 06:36:31;;;;;;;57.33;32.35;;;;;;;4.94;81.05;101791.46;1792609;78;28271;-85
2022/10/12 06:38:58;;;;;;;47.70;26.52;;;;;;;5.02;81.53;101791.21;1785590;78;25321;-83
2022/10/12 06:41:24;;;;;;;40.10;21.23;;;;;;;5.12;82.05;101793.95;1794753;78;25795;-82
2022/10/12 06:43:50;;;;;;;39.10;22.73;;;;;;;5.21;82.46;101789.25;1798329;78;25750;-82
2022/10/12 06:46:17;;;;;;;39.05;23.60;;;;;;;5.30;83.18;101789.84;1804722;78;25935;-82
2022/10/12 06:48:43;;;;;;;41.65;23.40;;;;;;;5.37;83.37;101798.50;1802261;78;27515;-82
2022/10/12 06:51:09;;;;;;;43.23;24.35;;;;;;;5.44;83.29;101801.03;1797605;78;25852;-82
2022/10/12 06:53:36;;;;;;;38.30;23.07;;;;;;;5.52;83.31;101800.91;1800577;78;25318;-83
2022/10/12 06:56:07;;;;;;;42.70;24.07;;;;;;;5.59;83.74;101797.60;1805119;78;25875;-82
2022/10/12 06:58:34;;;;;;;52.93;27.27;;;;;;;5.69;84.05;101804.36;1799143;78;25827;-83
2022/10/12 07:01:06;;;;;;;39.30;22.37;;;;;;;5.78;84.15;101800.44;1799458;78;27595;-82
2022/10/12 07:03:33;;;;;;;37.80;21.10;;;;;;;5.86;84.40;101800.67;1808544;78;26468;-82
2022/10/12 07:06:12;;;;;;;34.03;19.02;;;;;;;5.95;84.83;101805.23;1808486;78;25291;-82
2022/10/12 07:08:40;;;;;;;35.52;20.92;;;;;;;6.01;85.15;101808.70;1798022;78;25874;-82
2022/10/12 07:11:10;;;;;;;40.67;21.62;;;;;;;6.08;85.58;101810.37;1804339;78;25762;-82
2022/10/12 07:13:37;;;;;;;39.88;20.55;;;;;;;6.14;85.99;101816.02;1801675;78;27424;-83
2022/10/12 07:16:04;;;;;;;29.65;18.27;;;;;;;6.20;86.19;101812.02;1792377;78;26101;-83
2022/10/12 07:18:32;;;;;;;41.45;20.68;;;;;;;6.27;86.42;101813.64;1792913;78;25908;-83
2022/10/12 07:20:58;;;;;;;32.98;18.98;;;;;;;6.35;86.52;101814.69;1787602;78;26648;-81
2022/10/12 07:23:26;;;;;;;35.10;20.27;;;;;;;6.45;86.67;101814.28;1809184;77;25924;-82
2022/10/12 07:25:53;;;;;;;38.30;19.80;;;;;;;6.55;87.21;101814.33;1805570;77;28250;-82
2022/10/12 07:28:20;;;;;;;42.95;21.02;;;;;;;6.66;87.37;101815.58;1785951;78;26372;-82
2022/10/12 07:30:47;;;;;;;36.88;20.68;;;;;;;6.75;87.54;101810.33;1798874;78;26117;-82
2022/10/12 07:33:13;;;;;;;38.73;19.17;;;;;;;6.86;87.61;101816.05;1796081;78;25936;-81
2022/10/12 07:35:39;;;;;;;33.35;19.17;;;;;;;6.96;87.58;101814.27;1803728;78;25794;-81
2022/10/12 07:38:05;;;;;;;36.65;20.10;;;;;;;7.03;87.79;101821.57;1808170;78;27426;-84
2022/10/12 07:40:32;;;;;;;33.05;20.25;;;;;;;7.12;87.86;101817.25;1803515;79;25812;-84
2022/10/12 07:42:59;;;;;;;33.38;19.90;;;;;;;7.23;87.91;101817.67;1772261;79;25818;-83
2022/10/12 07:45:27;;;;;;;33.18;18.32;;;;;;;7.34;88.13;101815.72;1795384;78;26507;-82
2022/10/12 07:47:54;;;;;;;34.20;18.15;;;;;;;7.46;88.46;101811.13;1807608;78;25855;-83
2022/10/12 07:50:21;;;;;;;29.85;17.60;;;;;;;7.58;88.73;101815.36;1796605;78;27502;-83
2022/10/12 07:52:48;;;;;;;33.98;16.73;;;;;;;7.68;88.82;101819.72;1798846;78;25772;-83
2022/10/12 07:55:15;;;;;;;39.50;18.35;;;;;;;7.81;88.76;101820.78;1805700;78;25855;-83
2022/10/12 07:57:43;;;;;;;34.85;16.07;;;;;;;7.92;88.42;101814.47;1792412;78;25752;-83
2022/10/12 08:00:10;;;;;;;31.62;15.53;;;;;;;8.03;88.39;101812.52;1797824;79;25791;-82
2022/10/12 08:02:39;;;;;;;31.35;15.30;;;;;;;8.14;88.05;101809.71;1802283;79;28384;-82
2022/10/12 08:05:07;;;;;;;29.65;15.30;;;;;;;8.23;87.83;101806.16;1799116;79;25751;-82
2022/10/12 08:07:33;;;;;;;29.80;16.65;;;;;;;8.33;87.65;101809.72;1793572;78;25777;-83
2022/10/12 08:09:59;;;;;;;28.62;13.83;;;;;;;8.43;87.34;101808.35;1809449;78;26183;-82
2022/10/12 08:12:26;;;;;;;34.25;17.80;;;;;;;8.53;87.61;101808.68;1809159;78;25718;-82
2022/10/12 08:14:52;;;;;;;28.07;16.15;;;;;;;8.64;87.51;101806.33;1804463;77;27548;-83
2022/10/12 08:17:18;;;;;;;36.20;16.60;;;;;;;8.74;86.98;101800.48;1800448;77;26107;-82
2022/10/12 08:19:44;;;;;;;31.68;17.17;;;;;;;8.82;86.63;101796.58;1794122;78;25747;-83
2022/10/12 08:22:11;;;;;;;27.82;13.18;;;;;;;8.92;86.52;101797.87;1808783;78;25790;-82
2022/10/12 08:24:37;;;;;;;26.52;13.78;;;;;;;9.00;86.28;101794.80;1806458;77;26151;-82
2022/10/12 08:27:04;;;;;;;35.10;14.10;;;;;;;9.08;86.09;101798.94;1787837;77;27432;-83
2022/10/12 08:29:30;;;;;;;37.95;17.07;;;;;;;9.18;85.98;101796.20;1797869;78;26413;-83
2022/10/12 08:31:56;;;;;;;35.20;14.75;;;;;;;9.27;86.22;101793.50;1800186;78;25816;-81
2022/10/12 08:34:24;;;;;;;34.90;13.53;;;;;;;9.39;85.83;101791.95;1789404;78;25745;-84
2022/10/12 08:36:50;;;;;;;33.65;13.45;;;;;;;9.48;85.40;101789.70;1799036;78;26528;-83
2022/10/12 08:39:18;;;;;;;29.55;11.65;;;;;;;9.56;84.90;101795.97;1786599;78;27442;-82
2022/10/12 08:41:56;;;;;;;23.80;10.63;;;;;;;9.66;84.65;101797.26;1801284;78;25777;-83
2022/10/12 08:44:48;;;;;;;30.17;12.95;;;;;;;9.74;84.50;101794.17;1810889;78;25766;-83
2022/10/12 08:47:46;;;;;;;30.10;12.28;;;;;;;9.84;84.30;101796.75;1791544;78;25826;-83
2022/10/12 08:50:39;;;;;;;26.15;12.63;;;;;;;9.94;84.22;101799.69;1800755;78;26012;-82
2022/10/12 08:53:32;;;;;;;24.43;12.03;;;;;;;10.03;83.71;101793.42;1808497;78;27596;-82
2022/10/12 08:56:00;;;;;;;32.35;11.95;;;;;;;10.12;83.61;101801.06;1757213;79;25413;-83
2022/10/12 08:58:36;;;;;;;24.27;12.10;;;;;;;10.20;83.02;101801.64;1772709;80;25867;-84
2022/10/12 09:01:35;;;;;;;25.00;11.50;;;;;;;10.30;83.32;101801.89;1784895;80;25832;-83
2022/10/12 09:04:35;;;;;;;24.43;11.30;;;;;;;10.39;83.08;101808.97;1782566;79;25863;-82
2022/10/12 09:07:06;;;;;;;28.92;11.68;;;;;;;10.49;82.71;101807.55;1776096;80;27428;-83
2022/10/12 09:10:10;;;;;;;32.67;18.92;;;;;;;10.57;82.44;101807.10;1790883;78;26044;-83
2022/10/12 09:13:12;;;;;;;21.90;9.05;;;;;;;10.65;82.01;101802.28;1697443;83;25919;-83
2022/10/12 09:16:05;;;;;;;17.57;6.05;;;;;;;10.73;81.53;101800.48;1789312;77;26674;-82
2022/10/12 09:18:42;;;;;;;17.17;5.90;;;;;;;10.84;81.39;101798.07;1799452;78;26108;-82
2022/10/12 09:21:19;;;;;;;26.52;7.90;;;;;;;10.96;81.21;101796.78;1797862;77;27529;-82
2022/10/12 09:23:47;;;;;;;13.55;6.12;;;;;;;11.05;80.42;101790.95;1781268;78;26409;-83
2022/10/12 09:26:27;;;;;;;14.83;7.00;;;;;;;11.14;80.34;101794.84;1819310;77;25275;-83
2022/10/12 09:28:56;;;;;;;17.62;7.20;;;;;;;11.21;79.68;101788.33;1791806;77;26679;-83
2022/10/12 09:32:20;;;;;;;18.45;7.08;;;;;;;11.27;79.60;101792.55;1789509;78;26610;-83
2022/10/12 09:34:48;;;;;;;18.95;10.13;;;;;;;11.35;79.54;101787.73;1795482;77;27430;-84
2022/10/12 09:37:24;;;;;;;28.52;14.98;;;;;;;11.43;79.22;101783.22;1814304;76;25292;-83
2022/10/12 09:39:51;;;;;;;14.85;7.97;;;;;;;11.50;79.17;101786.91;1796971;77;25784;-83
2022/10/12 09:42:17;;;;;;;17.73;5.67;;;;;;;11.56;78.99;101781.41;1796638;77;25777;-84
2022/10/12 09:44:52;;;;;;;16.25;6.58;;;;;;;11.65;78.90;101787.14;1788940;78;25791;-83
2022/10/12 09:47:30;;;;;;;17.65;6.62;;;;;;;11.74;78.50;101791.52;1801203;78;27437;-83
2022/10/12 09:50:01;;;;;;;17.62;5.58;;;;;;;11.78;77.99;101791.56;1804754;79;25781;-82
2022/10/12 09:52:41;;;;;;;26.70;13.25;;;;;;;11.85;77.55;101789.02;1794565;77;25785;-83
2022/10/12 09:55:17;;;;;;;15.72;6.20;;;;;;;11.91;77.87;101790.54;1806184;78;26113;-84
2022/10/12 09:57:56;;;;;;;16.20;5.62;;;;;;;12.00;77.45;101790.05;1775777;78;26353;-83
2022/10/12 10:00:33;;;;;;;11.53;5.10;;;;;;;12.05;77.61;101789.89;1801820;79;27501;-83
2022/10/12 10:03:02;;;;;;;13.75;4.05;;;;;;;12.12;77.26;101786.89;1806758;78;26625;-83
2022/10/12 10:05:33;;;;;;;14.45;4.45;;;;;;;12.21;76.75;101794.44;1782809;78;25787;-83
2022/10/12 10:08:22;;;;;;;10.50;3.67;;;;;;;12.28;76.47;101788.70;1806097;78;32530;-83
2022/10/12 10:10:52;;;;;;;15.38;4.78;;;;;;;12.32;76.61;101790.05;1793647;78;26039;-84
2022/10/12 10:13:24;;;;;;;10.18;4.50;;;;;;;12.38;76.25;101786.17;1799011;78;32621;-82
2022/10/12 10:16:09;;;;;;;16.55;5.17;;;;;;;12.47;76.19;101784.32;1794839;78;25992;-84
2022/10/12 10:18:48;;;;;;;17.50;3.72;;;;;;;12.55;75.48;101782.14;1804416;77;25982;-81
2022/10/12 10:21:36;;;;;;;22.22;6.08;;;;;;;12.62;75.36;101783.11;1798159;77;26451;-83
2022/10/12 10:24:06;;;;;;;14.85;5.83;;;;;;;12.70;75.45;101779.90;1803244;78;25632;-83
2022/10/12 10:26:55;;;;;;;11.73;3.87;;;;;;;12.78;75.37;101775.87;1799013;78;27718;-84
2022/10/12 10:29:30;;;;;;;16.65;4.67;;;;;;;12.85;74.84;101771.98;1791430;79;25881;-82
2022/10/12 10:32:22;;;;;;;16.17;5.58;;;;;;;12.91;74.78;101775.32;1799648;79;26405;-82
2022/10/12 10:34:44;;;;;;;12.98;7.30;;;;;;;12.97;74.25;101771.94;1744492;80;26540;-83
2022/10/12 10:37:16;;;;;;;10.15;4.22;;;;;;;13.04;74.40;101771.08;1771390;79;26012;-83
2022/10/12 10:39:49;;;;;;;17.87;4.33;;;;;;;13.10;73.81;101768.22;1740010;81;27702;-83
2022/10/12 10:42:23;;;;;;;12.40;2.87;;;;;;;13.15;73.75;101759.94;1789565;78;25773;-83
2022/10/12 10:44:57;;;;;;;7.92;2.10;;;;;;;13.22;73.49;101760.58;1792628;78;25951;-83
2022/10/12 10:47:23;;;;;;;8.63;2.50;;;;;;;13.26;72.51;101756.02;1786118;77;26701;-85
2022/10/12 10:49:59;;;;;;;13.70;2.65;;;;;;;13.26;71.80;101751.17;1799219;78;25831;-85
2022/10/12 10:52:32;;;;;;;12.80;3.62;;;;;;;13.26;71.79;101753.33;1744414;80;27456;-84
2022/10/12 10:55:21;;;;;;;8.75;2.80;;;;;;;13.31;71.95;101755.50;1803950;77;25805;-82
2022/10/12 10:58:08;;;;;;;8.25;2.37;;;;;;;13.34;71.40;101751.97;1802984;79;25308;-83
2022/10/12 11:00:41;;;;;;;9.10;2.40;;;;;;;13.37;70.07;101749.41;1784993;78;25897;-84
2022/10/12 11:03:25;;;;;;;7.83;2.70;;;;;;;13.44;70.92;101750.38;1792297;78;25867;-84
2022/10/12 11:05:57;;;;;;;8.60;2.80;;;;;;;13.50;70.61;101749.66;1795516;77;28246;-79
2022/10/12 11:08:29;;;;;;;6.55;2.15;;;;;;;13.57;70.98;101739.87;1797735;77;25621;-78
2022/10/12 11:11:04;;;;;;;8.60;3.22;;;;;;;13.64;70.53;101744.34;1794841;78;25935;-79
2022/10/12 11:13:38;;;;;;;7.90;2.55;;;;;;;13.65;70.13;101739.81;1801615;78;26460;-77
2022/10/12 11:16:10;;;;;;;7.72;2.90;;;;;;;13.62;69.61;101741.00;1799740;77;25973;-82
2022/10/12 11:18:46;;;;;;;9.08;3.85;;;;;;;13.64;68.74;101745.69;1794119;78;28249;-82
2022/10/12 11:21:20;;;;;;;5.53;2.10;;;;;;;13.64;68.48;101746.23;1811339;77;25327;-82
2022/10/12 11:24:16;;;;;;;10.20;4.20;;;;;;;13.70;68.54;101740.12;1797687;78;25808;-81
2022/10/12 11:27:13;;;;;;;9.28;3.60;;;;;;;13.76;68.39;101739.39;1802729;78;25919;-82
2022/10/12 11:29:40;;;;;;;13.80;5.33;;;;;;;13.81;68.33;101736.48;1792675;77;25732;-82
2022/10/12 11:32:34;;;;;;;10.88;4.90;;;;;;;13.78;68.26;101738.20;1794571;77;28254;-82
2022/10/12 11:35:05;;;;;;;8.00;3.37;;;;;;;13.74;68.08;101738.23;1802801;78;26151;-82
2022/10/12 11:37:54;;;;;;;9.18;2.10;;;;;;;13.69;67.33;101731.70;1782280;78;26418;-82
2022/10/12 11:40:26;;;;;;;6.42;2.10;;;;;;;13.71;67.02;101735.89;1772986;79;25926;-82